Time;durP1;ratioP1;P1;durP2;ratioP2;P2;SDS_P1;SDS_P2;PMS_P1;PMS_P2;Temp;Humidity;BMP_temperature;BMP_pressure;BME280_temperature;BME280_humidity;BME280_pressure;Samples;Min_cycle;Max_cycle;Signal;HPM_P1;HPM_P2
2021/12/23 00:00:46;;;;;;;16.00;14.20;;;;;;;-4.45;68.90;93561.50;5069195;28;20233;-77
2021/12/23 00:03:11;;;;;;;16.83;15.43;;;;;;;-4.36;68.12;93545.25;5070783;28;20196;-77
2021/12/23 00:05:37;;;;;;;16.60;14.87;;;;;;;-4.31;68.02;93572.78;5067771;28;20232;-77
2021/12/23 00:08:03;;;;;;;15.20;13.70;;;;;;;-4.37;67.66;93565.78;5069931;28;20189;-77
2021/12/23 00:10:29;;;;;;;14.73;13.30;;;;;;;-4.42;67.12;93545.09;5068568;28;20244;-77
2021/12/23 00:12:55;;;;;;;14.93;13.67;;;;;;;-4.68;68.36;93560.63;5069684;28;20257;-78
2021/12/23 00:15:30;;;;;;;15.23;13.93;;;;;;;-4.62;68.55;93554.88;5069274;28;20204;-77
2021/12/23 00:18:00;;;;;;;14.73;13.20;;;;;;;-4.98;68.51;93539.22;5069420;28;20268;-77
2021/12/23 00:25:46;;;;;;;15.40;13.93;;;;;;;-4.68;68.79;93552.19;5067637;28;20302;-77
2021/12/23 00:28:12;;;;;;;15.07;13.80;;;;;;;-4.73;68.92;93557.00;5069892;28;20200;-77
2021/12/23 00:30:37;;;;;;;16.67;15.07;;;;;;;-4.62;68.80;93569.38;5068651;28;20232;-77
2021/12/23 00:33:02;;;;;;;15.57;14.17;;;;;;;-4.97;69.53;93563.75;5069273;28;20193;-77
2021/12/23 00:35:28;;;;;;;15.87;14.50;;;;;;;-4.84;69.27;93572.63;5068327;28;20229;-77
2021/12/23 00:38:01;;;;;;;13.73;12.43;;;;;;;-4.57;69.52;93573.03;5069232;28;20209;-77
2021/12/23 00:40:27;;;;;;;14.57;13.27;;;;;;;-5.13;68.92;93550.25;5067774;28;20233;-78
2021/12/23 00:42:53;;;;;;;14.47;13.13;;;;;;;-5.09;69.21;93577.75;5068771;28;20177;-77
2021/12/23 00:45:19;;;;;;;14.37;13.17;;;;;;;-5.15;69.49;93580.13;5068824;28;20201;-77
2021/12/23 00:47:44;;;;;;;14.77;13.37;;;;;;;-4.84;69.09;93570.84;5069305;28;20189;-76
2021/12/23 00:50:10;;;;;;;13.57;12.50;;;;;;;-5.05;68.78;93573.94;5068741;28;20250;-77
2021/12/23 00:52:37;;;;;;;13.67;12.57;;;;;;;-5.15;68.47;93565.69;5071689;28;20718;-76
2021/12/23 00:55:04;;;;;;;12.93;11.93;;;;;;;-5.35;68.51;93554.25;5071741;28;20620;-76
2021/12/23 00:57:31;;;;;;;13.37;12.23;;;;;;;-5.20;68.96;93559.50;5072371;28;20229;-77
2021/12/23 00:59:59;;;;;;;13.50;12.57;;;;;;;-5.13;68.49;93561.22;5072167;28;20201;-77
2021/12/23 01:02:31;;;;;;;13.13;12.23;;;;;;;-5.14;68.84;93558.84;5072312;28;21047;-78
2021/12/23 01:04:56;;;;;;;12.93;12.03;;;;;;;-5.12;68.64;93545.00;5072117;28;20253;-77
2021/12/23 01:07:22;;;;;;;13.70;12.37;;;;;;;-4.89;68.70;93552.75;5072016;28;20255;-77
2021/12/23 01:09:47;;;;;;;13.73;12.67;;;;;;;-4.92;68.15;93551.31;5072096;28;20186;-77
2021/12/23 01:12:17;;;;;;;12.23;11.33;;;;;;;-5.17;68.24;93547.22;5070422;28;20229;-77
2021/12/23 01:14:54;;;;;;;12.13;11.20;;;;;;;-5.48;68.30;93551.38;5072872;28;20297;-77
2021/12/23 01:19:52;;;;;;;12.60;11.67;;;;;;;-5.72;68.64;93553.13;5072052;28;20264;-77
2021/12/23 01:22:18;;;;;;;12.10;11.17;;;;;;;-5.84;69.01;93547.63;5071219;28;20260;-77
2021/12/23 01:24:44;;;;;;;13.47;12.47;;;;;;;-5.79;68.98;93547.88;5072527;28;20189;-77
2021/12/23 01:27:10;;;;;;;10.80;10.10;;;;;;;-5.86;68.80;93553.78;5071715;28;20240;-77
2021/12/23 01:29:36;;;;;;;12.43;11.53;;;;;;;-5.84;69.49;93544.28;5073112;28;20177;-77
2021/12/23 01:32:04;;;;;;;11.47;10.67;;;;;;;-5.98;68.74;93542.34;5071094;28;20225;-76
2021/12/23 01:34:33;;;;;;;11.77;10.80;;;;;;;-6.05;68.73;93547.25;5072165;28;20205;-77
2021/12/23 01:36:59;;;;;;;12.43;11.53;;;;;;;-6.00;68.65;93544.25;5071588;28;20249;-77
2021/12/23 01:39:24;;;;;;;10.90;10.13;;;;;;;-5.98;68.16;93540.63;5071909;28;20224;-77
2021/12/23 01:41:50;;;;;;;11.30;10.60;;;;;;;-5.73;68.47;93541.38;5071747;28;20225;-77
2021/12/23 01:44:15;;;;;;;11.37;10.80;;;;;;;-6.09;68.12;93518.03;5070806;28;20253;-77
2021/12/23 01:46:41;;;;;;;11.30;10.67;;;;;;;-6.14;68.80;93517.72;5070266;28;20228;-77
2021/12/23 01:49:07;;;;;;;10.87;9.93;;;;;;;-6.08;69.14;93527.25;5073258;28;20212;-77
2021/12/23 01:51:32;;;;;;;10.57;9.60;;;;;;;-5.69;69.57;93527.41;5072318;28;20228;-76
2021/12/23 01:53:58;;;;;;;10.83;10.33;;;;;;;-5.52;68.00;93519.59;5071023;28;20241;-77
2021/12/23 01:56:25;;;;;;;11.17;10.57;;;;;;;-5.70;66.81;93530.91;5071138;28;20217;-77
2021/12/23 01:58:50;;;;;;;11.00;10.30;;;;;;;-5.44;67.49;93524.69;5071119;28;20231;-77
2021/12/23 02:01:16;;;;;;;10.87;10.23;;;;;;;-5.91;68.40;93507.72;5071575;28;20253;-77
2021/12/23 02:03:42;;;;;;;11.00;10.00;;;;;;;-6.14;68.28;93514.38;5071265;28;20229;-77
2021/12/23 02:06:08;;;;;;;12.27;11.30;;;;;;;-6.04;69.21;93537.91;5071238;28;20275;-77
2021/12/23 02:08:35;;;;;;;11.90;11.10;;;;;;;-5.82;68.64;93542.38;5071854;28;20208;-78
2021/12/23 02:11:02;;;;;;;11.97;10.93;;;;;;;-6.12;68.47;93541.22;5072068;28;20217;-78
2021/12/23 02:13:28;;;;;;;11.23;10.10;;;;;;;-6.00;68.57;93539.16;5071254;28;20304;-77
2021/12/23 02:15:53;;;;;;;11.73;10.83;;;;;;;-6.06;68.81;93543.13;5070903;28;20224;-76
2021/12/23 02:18:23;;;;;;;11.30;10.40;;;;;;;-6.06;69.29;93549.97;5071192;28;20209;-76
2021/12/23 02:20:49;;;;;;;11.97;11.10;;;;;;;-6.24;69.90;93557.69;5071726;28;20248;-78
2021/12/23 02:23:14;;;;;;;11.90;10.90;;;;;;;-6.38;69.93;93537.97;5071413;28;20194;-77
2021/12/23 02:25:40;;;;;;;11.23;10.43;;;;;;;-6.28;69.53;93548.81;5071337;28;20221;-77
2021/12/23 02:28:08;;;;;;;11.10;10.30;;;;;;;-6.28;69.19;93546.25;5071477;28;20193;-77
2021/12/23 02:30:37;;;;;;;12.63;11.93;;;;;;;-6.24;69.37;93547.53;5070521;28;20228;-77
2021/12/23 02:33:03;;;;;;;11.53;10.73;;;;;;;-6.28;69.36;93543.72;5071351;28;20193;-77
2021/12/23 02:35:29;;;;;;;12.37;11.60;;;;;;;-6.33;69.83;93543.38;5070598;28;20912;-77
2021/12/23 02:37:55;;;;;;;12.37;11.47;;;;;;;-6.42;69.99;93539.25;5071090;28;20197;-77
2021/12/23 02:40:30;;;;;;;11.50;10.70;;;;;;;-6.43;70.44;93530.03;5085891;28;20190;-77
2021/12/23 02:43:14;;;;;;;11.27;10.47;;;;;;;-6.51;69.93;93532.56;5070399;28;20181;-77
2021/12/23 02:45:42;;;;;;;11.60;10.70;;;;;;;-6.48;70.06;93534.78;5069412;28;20259;-76
2021/12/23 02:48:17;;;;;;;12.23;11.40;;;;;;;-6.30;70.53;93537.22;5071438;28;20173;-77
2021/12/23 02:50:46;;;;;;;12.70;11.70;;;;;;;-6.38;69.61;93545.59;5070952;28;20225;-77
2021/12/23 02:53:12;;;;;;;12.27;11.37;;;;;;;-5.80;69.06;93536.13;5070021;28;20181;-77
2021/12/23 02:55:37;;;;;;;12.53;11.30;;;;;;;-6.11;69.75;93532.66;5069550;28;20282;-77
2021/12/23 02:58:04;;;;;;;13.67;12.57;;;;;;;-5.94;68.83;93544.41;5070191;28;20237;-78
2021/12/23 03:00:30;;;;;;;12.83;11.87;;;;;;;-5.86;69.31;93516.47;5067012;28;20332;-77
2021/12/23 03:02:56;;;;;;;13.93;12.83;;;;;;;-6.18;69.70;93526.63;5071133;28;20216;-77
2021/12/23 03:05:22;;;;;;;13.77;12.57;;;;;;;-6.33;70.09;93532.47;5070111;28;20261;-77
2021/12/23 03:07:47;;;;;;;13.63;12.63;;;;;;;-6.27;70.24;93502.13;5069804;28;20214;-77
2021/12/23 03:10:13;;;;;;;12.77;11.73;;;;;;;-6.45;70.66;93523.50;5070225;28;20185;-77
2021/12/23 03:12:38;;;;;;;15.30;14.00;;;;;;;-6.42;70.59;93513.84;5069868;28;20219;-76
2021/12/23 03:15:05;;;;;;;15.47;14.13;;;;;;;-6.50;70.49;93515.56;5069500;28;20192;-77
2021/12/23 03:17:30;;;;;;;15.43;13.73;;;;;;;-6.65;71.29;93497.59;5069293;28;20225;-77
2021/12/23 03:19:56;;;;;;;15.00;13.67;;;;;;;-6.67;71.65;93502.03;5070407;28;20257;-77
2021/12/23 03:22:21;;;;;;;20.17;15.30;;;;;;;-6.53;72.07;93491.28;5070087;28;20229;-77
2021/12/23 03:24:47;;;;;;;20.83;16.40;;;;;;;-6.52;72.45;93505.56;5069716;28;20197;-77
2021/12/23 03:27:12;;;;;;;19.53;16.83;;;;;;;-6.27;71.61;93497.03;5069745;28;20225;-76
2021/12/23 03:29:38;;;;;;;22.93;17.90;;;;;;;-6.75;72.63;93476.63;5070503;28;20197;-77
2021/12/23 03:32:04;;;;;;;18.20;16.30;;;;;;;-6.53;71.85;93508.25;5069801;28;20225;-76
2021/12/23 03:34:29;;;;;;;15.57;14.07;;;;;;;-6.70;72.28;93504.88;5070380;28;20188;-77
2021/12/23 03:36:55;;;;;;;16.67;15.27;;;;;;;-6.65;72.47;93497.59;5069155;28;20245;-77
2021/12/23 03:39:21;;;;;;;15.83;14.13;;;;;;;-6.79;71.97;93490.56;5069952;28;20228;-77
2021/12/23 03:41:47;;;;;;;14.63;13.23;;;;;;;-6.56;72.54;93508.56;5069464;28;20229;-77
2021/12/23 03:44:13;;;;;;;17.87;16.03;;;;;;;-6.75;71.98;93514.69;5069700;28;20288;-77
2021/12/23 03:46:39;;;;;;;17.03;15.43;;;;;;;-7.01;72.52;93512.22;5069148;28;20251;-76
2021/12/23 03:49:08;;;;;;;15.23;13.73;;;;;;;-7.01;72.86;93516.50;5070288;28;20204;-77
2021/12/23 03:51:34;;;;;;;16.80;15.10;;;;;;;-7.01;72.68;93507.16;5068805;28;20225;-77
2021/12/23 03:54:00;;;;;;;15.43;14.03;;;;;;;-7.02;72.87;93509.84;5068719;28;20207;-77
2021/12/23 03:56:25;;;;;;;13.77;12.47;;;;;;;-7.01;72.66;93483.50;5069184;28;20225;-77
2021/12/23 03:58:51;;;;;;;13.37;12.37;;;;;;;-6.89;71.91;93517.81;5069522;28;20272;-77
2021/12/23 04:01:16;;;;;;;12.57;11.50;;;;;;;-6.90;72.88;93508.63;5069443;28;20285;-77
2021/12/23 04:03:42;;;;;;;13.80;12.50;;;;;;;-6.74;71.78;93518.84;5069046;28;21350;-77
2021/12/23 04:06:07;;;;;;;12.60;11.40;;;;;;;-6.94;71.99;93522.56;5070440;28;20221;-77
2021/12/23 04:08:33;;;;;;;12.77;11.77;;;;;;;-6.81;72.53;93522.91;5069175;28;20189;-77
2021/12/23 04:11:00;;;;;;;12.03;11.23;;;;;;;-7.01;71.48;93516.50;5068440;28;20248;-77
2021/12/23 04:13:27;;;;;;;12.17;11.27;;;;;;;-7.04;71.85;93514.25;5068724;28;20192;-77
2021/12/23 04:15:52;;;;;;;11.63;10.83;;;;;;;-7.02;71.57;93520.00;5067764;28;20240;-74
2021/12/23 04:18:18;;;;;;;11.73;10.93;;;;;;;-7.17;71.82;93491.03;5068872;28;20272;-73
2021/12/23 04:20:53;;;;;;;13.20;12.40;;;;;;;-7.10;72.16;93523.28;5068991;28;20229;-74
2021/12/23 04:23:29;;;;;;;12.17;11.27;;;;;;;-7.07;71.62;93529.78;5069123;28;20219;-75
2021/12/23 04:25:55;;;;;;;11.70;11.00;;;;;;;-7.04;71.24;93537.09;5068557;28;20273;-75
2021/12/23 04:28:22;;;;;;;11.10;10.40;;;;;;;-6.90;71.72;93524.66;5072393;28;20201;-74
2021/12/23 04:30:48;;;;;;;12.80;11.90;;;;;;;-7.04;71.87;93524.41;5072666;28;20232;-75
2021/12/23 04:33:15;;;;;;;12.03;10.83;;;;;;;-6.90;71.13;93514.50;5072867;28;20252;-70
2021/12/23 04:35:40;;;;;;;13.13;11.07;;;;;;;-6.90;71.37;93531.44;5072815;28;20232;-72
2021/12/23 04:38:07;;;;;;;11.93;11.07;;;;;;;-7.27;71.16;93482.78;5072304;28;20773;-73
2021/12/23 04:40:37;;;;;;;12.10;11.30;;;;;;;-6.98;70.94;93526.34;5069458;28;20241;-73
2021/12/23 04:43:04;;;;;;;13.00;12.00;;;;;;;-6.99;71.29;93519.69;5071994;28;20224;-77
2021/12/23 04:45:30;;;;;;;12.87;11.90;;;;;;;-7.02;71.40;93525.06;5069760;28;20308;-78
2021/12/23 04:47:55;;;;;;;12.37;11.60;;;;;;;-7.04;72.09;93526.94;5072486;28;20201;-75
2021/12/23 04:50:21;;;;;;;11.80;10.80;;;;;;;-7.14;71.64;93485.66;5070788;28;20198;-76
2021/12/23 04:52:47;;;;;;;10.80;10.00;;;;;;;-6.95;71.41;93526.03;5071919;28;20197;-74
2021/12/23 04:55:14;;;;;;;11.23;10.57;;;;;;;-7.10;71.58;93527.56;5070400;28;20224;-76
2021/12/23 04:57:40;;;;;;;11.43;10.80;;;;;;;-6.97;71.54;93530.47;5071382;28;20237;-76
2021/12/23 05:00:10;;;;;;;11.17;10.47;;;;;;;-6.96;71.38;93532.06;5072228;28;20205;-82
2021/12/23 05:02:35;;;;;;;10.93;10.23;;;;;;;-6.44;71.38;93541.13;5072255;28;20213;-80
2021/12/23 05:05:01;;;;;;;11.30;10.50;;;;;;;-6.96;70.67;93554.91;5073011;28;20224;-79
2021/12/23 05:07:26;;;;;;;12.77;11.87;;;;;;;-7.09;71.89;93524.88;5072032;28;20220;-77
2021/12/23 05:09:51;;;;;;;12.53;11.73;;;;;;;-7.11;71.92;93541.16;5074002;28;20216;-77
2021/12/23 05:12:17;;;;;;;12.37;11.20;;;;;;;-7.26;72.22;93532.53;5071114;28;20221;-75
2021/12/23 05:14:43;;;;;;;12.40;11.40;;;;;;;-7.28;72.23;93545.38;5071958;28;20189;-81
2021/12/23 05:17:08;;;;;;;12.37;11.37;;;;;;;-7.30;72.23;93533.78;5071731;28;20292;-80
2021/12/23 05:19:34;;;;;;;12.73;11.50;;;;;;;-7.38;72.04;93493.16;5073347;28;20256;-79
2021/12/23 05:21:59;;;;;;;12.60;11.53;;;;;;;-7.15;71.97;93524.66;5072753;28;20251;-81
2021/12/23 05:24:25;;;;;;;11.57;10.77;;;;;;;-7.26;71.70;93522.38;5072802;28;20184;-82
2021/12/23 05:26:50;;;;;;;11.40;10.50;;;;;;;-7.16;72.22;93530.69;5071355;28;20233;-82
2021/12/23 05:29:16;;;;;;;12.80;11.63;;;;;;;-7.15;72.28;93519.59;5071792;28;20189;-79
2021/12/23 05:31:42;;;;;;;21.00;16.37;;;;;;;-7.31;71.91;93530.44;5071452;28;20217;-77
2021/12/23 05:34:07;;;;;;;27.40;15.37;;;;;;;-7.28;72.82;93536.94;5071031;28;20186;-79
2021/12/23 05:36:33;;;;;;;20.53;16.30;;;;;;;-7.02;72.41;93525.84;5071366;28;20285;-80
2021/12/23 05:38:58;;;;;;;19.00;15.13;;;;;;;-6.95;72.14;93531.09;5069146;28;20208;-75
2021/12/23 05:41:27;;;;;;;20.77;15.80;;;;;;;-7.08;71.80;93515.53;5069631;28;20434;-74
2021/12/23 05:43:54;;;;;;;29.63;18.03;;;;;;;-7.16;72.74;93538.31;5070709;28;20207;-78
2021/12/23 05:46:20;;;;;;;37.20;21.07;;;;;;;-7.04;72.93;93534.56;5070991;28;20221;-77
2021/12/23 05:48:45;;;;;;;41.83;21.97;;;;;;;-7.29;72.36;93532.84;5070221;28;20277;-77
2021/12/23 05:51:11;;;;;;;59.13;22.90;;;;;;;-7.26;71.75;93538.41;5070310;28;20224;-78
2021/12/23 05:53:36;;;;;;;32.67;19.87;;;;;;;-7.43;72.41;93523.25;5069349;28;20197;-78
2021/12/23 05:56:02;;;;;;;16.40;14.53;;;;;;;-7.45;71.79;93514.97;5067543;28;20241;-78
2021/12/23 05:58:28;;;;;;;17.33;15.13;;;;;;;-7.43;72.77;93531.66;5067466;28;20256;-77
2021/12/23 06:00:53;;;;;;;38.17;20.67;;;;;;;-7.27;72.39;93533.50;5068663;28;20232;-74
2021/12/23 06:03:19;;;;;;;14.27;12.97;;;;;;;-7.36;72.58;93526.78;5068516;28;20194;-78
2021/12/23 06:05:44;;;;;;;23.00;17.93;;;;;;;-7.36;71.99;93531.84;5066986;28;20217;-75
2021/12/23 06:08:10;;;;;;;14.33;12.93;;;;;;;-7.28;72.11;93530.16;5069576;28;20204;-75
2021/12/23 06:10:35;;;;;;;13.47;12.27;;;;;;;-7.23;71.80;93529.69;5069785;28;20252;-75
2021/12/23 06:13:01;;;;;;;12.37;11.53;;;;;;;-7.43;71.89;93513.09;5071253;28;20197;-76
2021/12/23 06:15:26;;;;;;;12.87;11.73;;;;;;;-7.29;71.67;93528.56;5069556;28;20240;-75
2021/12/23 06:17:52;;;;;;;12.80;11.80;;;;;;;-7.33;71.83;93521.41;5070187;28;20201;-75
2021/12/23 06:20:17;;;;;;;12.57;11.77;;;;;;;-7.30;71.29;93505.91;5069615;28;20264;-76
2021/12/23 06:22:43;;;;;;;11.77;10.87;;;;;;;-7.11;70.81;93541.16;5071069;28;20188;-74
2021/12/23 06:25:10;;;;;;;14.40;11.03;;;;;;;-7.21;71.55;93545.56;5069299;28;20198;-76
2021/12/23 06:27:36;;;;;;;12.13;11.20;;;;;;;-7.33;71.87;93534.09;5069845;28;20216;-76
2021/12/23 06:30:06;;;;;;;16.03;12.13;;;;;;;-7.12;71.08;93526.91;5069325;28;20201;-76
2021/12/23 06:32:41;;;;;;;13.33;10.47;;;;;;;-6.85;71.42;93547.03;5069649;28;20212;-76
2021/12/23 06:35:08;;;;;;;12.67;11.87;;;;;;;-7.08;72.02;93530.75;5070741;28;20202;-76
2021/12/23 06:37:33;;;;;;;12.57;11.67;;;;;;;-7.15;72.28;93517.06;5068452;28;20251;-76
2021/12/23 06:39:59;;;;;;;12.47;11.50;;;;;;;-6.99;71.98;93555.19;5070433;28;20189;-75
2021/12/23 06:42:27;;;;;;;12.50;11.67;;;;;;;-7.01;72.11;93511.41;5069147;28;20253;-75
2021/12/23 06:44:52;;;;;;;13.17;12.07;;;;;;;-6.82;71.98;93541.66;5070195;28;20185;-76
2021/12/23 06:47:18;;;;;;;13.13;12.03;;;;;;;-6.87;72.37;93539.56;5069266;28;20233;-77
2021/12/23 06:49:43;;;;;;;11.77;11.00;;;;;;;-6.71;71.89;93543.91;5068521;28;20189;-76
2021/12/23 06:52:10;;;;;;;13.80;12.40;;;;;;;-6.44;71.22;93510.66;5069947;28;20212;-75
2021/12/23 06:54:41;;;;;;;12.63;11.80;;;;;;;-6.49;70.81;93535.75;5067502;28;20197;-75
2021/12/23 06:57:07;;;;;;;13.87;12.80;;;;;;;-6.34;71.34;93539.28;5066981;28;20225;-75
2021/12/23 06:59:32;;;;;;;14.07;12.87;;;;;;;-6.32;70.09;93529.75;5070410;28;20212;-75
2021/12/23 07:01:58;;;;;;;15.00;13.67;;;;;;;-6.43;71.18;93526.69;5068633;28;20229;-76
2021/12/23 07:04:28;;;;;;;20.77;15.83;;;;;;;-5.99;70.74;93536.47;5069594;28;20181;-75
2021/12/23 07:07:09;;;;;;;20.63;15.40;;;;;;;-6.15;70.16;93536.47;5068315;28;20748;-76
2021/12/23 07:09:36;;;;;;;17.57;15.67;;;;;;;-6.41;70.05;93550.97;5067538;28;20184;-77
2021/12/23 07:12:03;;;;;;;21.67;16.67;;;;;;;-6.49;70.93;93519.72;5069848;28;20292;-76
2021/12/23 07:14:29;;;;;;;27.40;18.03;;;;;;;-5.88;69.66;93530.31;5068093;28;20193;-76
2021/12/23 07:16:54;;;;;;;25.07;18.00;;;;;;;-5.57;68.58;93537.09;5067744;28;20289;-76
2021/12/23 07:19:20;;;;;;;21.60;18.33;;;;;;;-5.66;67.60;93525.34;5068291;28;20305;-76
2021/12/23 07:21:45;;;;;;;20.23;17.97;;;;;;;-5.35;68.17;93540.72;5068869;28;20229;-77
2021/12/23 07:24:11;;;;;;;31.87;20.80;;;;;;;-5.57;67.82;93552.34;5069798;28;20181;-76
2021/12/23 07:26:36;;;;;;;26.70;20.53;;;;;;;-5.37;67.27;93528.16;5069011;28;20217;-76
2021/12/23 07:29:02;;;;;;;30.23;22.53;;;;;;;-5.34;67.01;93553.28;5068756;28;20208;-77
2021/12/23 07:31:27;;;;;;;34.33;22.80;;;;;;;-5.67;69.33;93556.81;5067423;28;20233;-77
2021/12/23 07:33:53;;;;;;;33.97;24.33;;;;;;;-5.72;69.92;93564.13;5067543;28;20196;-77
2021/12/23 07:36:19;;;;;;;35.30;23.07;;;;;;;-5.67;69.92;93569.53;5068057;28;21146;-77
2021/12/23 07:38:45;;;;;;;30.90;23.00;;;;;;;-5.66;68.50;93527.88;5067823;28;20216;-77
2021/12/23 07:41:10;;;;;;;31.20;23.13;;;;;;;-5.29;68.97;93561.25;5069398;28;20232;-77
2021/12/23 07:46:03;;;;;;;27.70;22.53;;;;;;;-4.93;68.04;93563.44;5067713;28;20235;-77
2021/12/23 07:48:30;;;;;;;29.87;22.60;;;;;;;-4.90;67.92;93563.09;5068085;28;20194;-77
2021/12/23 07:50:57;;;;;;;30.23;23.67;;;;;;;-5.22;69.17;93552.03;5067961;28;20218;-77
2021/12/23 07:53:22;;;;;;;35.20;21.83;;;;;;;-5.21;69.21;93565.53;5069561;28;20197;-77
2021/12/23 07:55:48;;;;;;;37.40;23.00;;;;;;;-5.30;70.37;93559.66;5066902;28;20232;-77
2021/12/23 07:58:13;;;;;;;37.83;23.43;;;;;;;-5.21;69.85;93566.31;5068522;28;20236;-77
2021/12/23 08:00:39;;;;;;;34.03;21.43;;;;;;;-5.03;69.03;93566.16;5066392;28;20235;-77
2021/12/23 08:03:05;;;;;;;34.40;23.13;;;;;;;-4.99;68.30;93555.47;5069210;28;20682;-77
2021/12/23 08:05:31;;;;;;;29.37;22.60;;;;;;;-4.89;68.30;93569.78;5067458;28;20243;-77
2021/12/23 08:07:57;;;;;;;30.47;22.10;;;;;;;-4.78;67.72;93574.53;5067527;28;20217;-78
2021/12/23 08:10:23;;;;;;;35.40;22.30;;;;;;;-4.73;68.17;93562.09;5067433;28;20198;-77
2021/12/23 08:12:48;;;;;;;28.17;21.47;;;;;;;-4.77;68.40;93571.81;5066854;28;20189;-77
2021/12/23 08:15:14;;;;;;;28.80;22.63;;;;;;;-4.88;68.45;93558.63;5068182;28;20186;-77
2021/12/23 08:17:39;;;;;;;27.83;21.20;;;;;;;-4.94;68.90;93529.53;5067106;28;20201;-77
2021/12/23 08:20:06;;;;;;;29.83;22.10;;;;;;;-4.69;68.61;93571.00;5068274;28;20198;-77
2021/12/23 08:22:32;;;;;;;35.73;22.30;;;;;;;-4.46;68.10;93559.13;5066730;28;20189;-77
2021/12/23 08:24:57;;;;;;;29.03;20.80;;;;;;;-4.27;66.56;93574.03;5067135;28;20225;-77
2021/12/23 08:27:26;;;;;;;37.57;21.67;;;;;;;-4.56;67.44;93543.25;5067976;28;20307;-78
2021/12/23 08:29:52;;;;;;;28.03;21.90;;;;;;;-4.54;67.20;93559.94;5065930;28;20430;-78
2021/12/23 08:32:19;;;;;;;28.97;21.03;;;;;;;-4.30;66.57;93561.59;5067253;28;20217;-77
2021/12/23 08:34:44;;;;;;;28.43;22.77;;;;;;;-4.55;67.21;93549.94;5066967;28;20177;-77
2021/12/23 08:37:11;;;;;;;29.60;21.40;;;;;;;-4.43;67.56;93558.78;5068456;28;20217;-77
2021/12/23 08:39:41;;;;;;;29.63;21.30;;;;;;;-4.25;65.86;93556.81;5068698;28;20241;-77
2021/12/23 08:42:08;;;;;;;30.57;22.80;;;;;;;-3.92;65.11;93553.13;5067080;28;20229;-76
2021/12/23 08:44:34;;;;;;;26.83;20.10;;;;;;;-3.95;64.98;93554.25;5066865;28;20181;-77
2021/12/23 08:47:00;;;;;;;25.37;20.50;;;;;;;-3.94;63.99;93539.75;5067024;28;20220;-77
2021/12/23 08:49:26;;;;;;;30.27;22.13;;;;;;;-3.91;63.98;93539.41;5067270;28;20193;-77
2021/12/23 08:51:52;;;;;;;30.80;22.30;;;;;;;-3.95;64.84;93533.03;5067374;28;20225;-77
2021/12/23 08:54:18;;;;;;;28.40;23.13;;;;;;;-4.28;66.47;93532.44;5068070;28;20285;-77
2021/12/23 08:56:44;;;;;;;35.87;21.97;;;;;;;-3.79;64.50;93532.94;5067241;28;20230;-78
2021/12/23 08:59:10;;;;;;;29.10;21.33;;;;;;;-4.00;63.82;93513.16;5067332;28;20209;-78
2021/12/23 09:01:35;;;;;;;32.27;23.37;;;;;;;-4.04;65.78;93534.06;5066273;28;20229;-78
2021/12/23 09:04:01;;;;;;;31.50;23.47;;;;;;;-3.63;64.48;93533.63;5068416;28;20193;-77
2021/12/23 09:06:26;;;;;;;27.70;22.63;;;;;;;-4.04;64.24;93485.63;5067007;28;20232;-77
2021/12/23 09:08:54;;;;;;;33.13;21.03;;;;;;;-3.45;63.15;93523.13;5068597;28;20189;-78
2021/12/23 09:11:19;;;;;;;33.77;22.80;;;;;;;-3.54;62.34;93496.09;5066565;28;20232;-78
2021/12/23 09:13:45;;;;;;;32.77;23.37;;;;;;;-3.63;63.46;93513.19;5071730;28;20185;-78
2021/12/23 09:16:12;;;;;;;32.97;22.93;;;;;;;-3.85;65.04;93503.03;5070375;28;20225;-78
2021/12/23 09:18:37;;;;;;;26.23;22.13;;;;;;;-3.66;63.76;93488.03;5069134;28;20253;-77
2021/12/23 09:21:04;;;;;;;21.93;18.90;;;;;;;-3.42;61.18;93492.16;5071838;28;20232;-77
2021/12/23 09:23:30;;;;;;;23.00;18.30;;;;;;;-3.50;61.51;93505.78;5070787;28;20189;-77
2021/12/23 09:25:56;;;;;;;28.90;20.83;;;;;;;-3.47;61.89;93502.09;5070619;28;20225;-78
2021/12/23 09:33:43;;;;;;;23.07;20.47;;;;;;;-3.32;60.21;93495.25;5071610;28;20208;-77
2021/12/23 09:36:09;;;;;;;25.90;21.53;;;;;;;-3.61;61.67;93455.16;5068646;28;20358;-77
2021/12/23 09:38:35;;;;;;;22.80;19.07;;;;;;;-3.17;60.27;93485.84;5070858;28;20240;-77
2021/12/23 09:41:06;;;;;;;27.07;20.43;;;;;;;-3.22;61.01;93495.78;5070858;28;20233;-77
2021/12/23 09:43:34;;;;;;;21.37;18.47;;;;;;;-2.99;60.23;93490.63;5071785;28;20253;-78
2021/12/23 09:45:59;;;;;;;21.80;17.17;;;;;;;-2.75;58.92;93493.69;5071165;28;20233;-78
2021/12/23 09:48:30;;;;;;;21.20;18.93;;;;;;;-2.69;58.74;93487.88;5071536;28;20185;-78
2021/12/23 09:50:58;;;;;;;22.80;19.00;;;;;;;-2.92;60.21;93471.06;5072433;28;20236;-78
2021/12/23 09:53:25;;;;;;;22.77;19.17;;;;;;;-2.65;58.61;93480.66;5071591;28;20315;-78
2021/12/23 09:55:51;;;;;;;27.80;22.27;;;;;;;-2.52;58.48;93468.81;5070083;28;20228;-78
2021/12/23 09:58:17;;;;;;;23.67;19.73;;;;;;;-2.61;58.12;93466.53;5072239;28;20721;-78
2021/12/23 10:00:45;;;;;;;23.00;20.40;;;;;;;-2.68;58.36;93455.47;5069814;28;20310;-78
2021/12/23 10:03:12;;;;;;;25.17;20.77;;;;;;;-2.79;58.53;93451.59;5070303;28;20630;-78
2021/12/23 10:05:37;;;;;;;26.23;19.90;;;;;;;-2.81;59.78;93433.09;5071739;28;20237;-78
2021/12/23 10:08:05;;;;;;;25.87;18.50;;;;;;;-2.43;57.59;93438.84;5071014;28;20181;-78
2021/12/23 10:10:40;;;;;;;28.20;19.93;;;;;;;-2.46;57.72;93452.78;5071696;28;20857;-77
2021/12/23 10:38:15;;;;;;;27.83;22.37;;;;;;;-2.14;57.62;93403.75;5049620;28;20224;-78
2021/12/23 10:40:44;;;;;;;28.87;22.30;;;;;;;-2.58;58.13;93398.00;5049123;28;20272;-78
2021/12/23 10:43:31;;;;;;;30.23;21.23;;;;;;;-2.65;58.50;93422.69;5050650;28;20231;-78
2021/12/23 10:46:11;;;;;;;29.20;21.03;;;;;;;-2.49;58.62;93412.22;5056505;28;20241;-77
2021/12/23 10:48:45;;;;;;;28.70;22.07;;;;;;;-2.21;58.92;93414.91;5070784;28;20195;-77
2021/12/23 10:51:16;;;;;;;26.57;22.97;;;;;;;-2.10;58.56;93401.63;5070906;28;20285;-77
2021/12/23 10:59:23;;;;;;;29.93;22.33;;;;;;;-1.63;56.19;93388.25;5069555;28;20224;-77
2021/12/23 11:02:15;;;;;;;34.27;23.50;;;;;;;-1.58;56.31;93380.78;5069582;28;20239;-78
2021/12/23 11:05:08;;;;;;;30.10;22.37;;;;;;;-1.56;55.41;93384.75;5070257;28;20178;-78
2021/12/23 11:27:58;;;;;;;33.33;22.13;;;;;;;-1.25;54.67;93359.53;5069873;28;20666;-77
2021/12/23 11:38:18;;;;;;;29.47;21.73;;;;;;;-1.23;54.96;93349.09;5067417;28;20217;-78
2021/12/23 11:45:40;;;;;;;27.97;20.77;;;;;;;-1.15;54.39;93331.00;5067625;28;20252;-77
2021/12/23 11:48:08;;;;;;;27.37;21.80;;;;;;;-1.16;54.99;93329.41;5067661;28;20203;-77
2021/12/23 11:50:42;;;;;;;24.60;21.93;;;;;;;-1.10;55.01;93333.75;5069010;28;20255;-77
2021/12/23 11:53:09;;;;;;;28.03;20.67;;;;;;;-0.84;52.88;93331.34;5069075;28;20205;-81
2021/12/23 11:55:35;;;;;;;27.00;19.83;;;;;;;-0.98;53.22;93329.69;5068756;28;20225;-77
2021/12/23 11:58:01;;;;;;;27.63;21.43;;;;;;;-1.03;53.85;93329.47;5068104;28;20229;-76
2021/12/23 12:00:42;;;;;;;26.07;21.00;;;;;;;-0.98;53.49;93311.75;5069141;28;20233;-76
2021/12/23 12:03:09;;;;;;;33.37;20.77;;;;;;;-0.73;51.72;93316.16;5067321;28;20208;-76
2021/12/23 12:05:36;;;;;;;25.30;18.37;;;;;;;-0.56;51.19;93317.38;5068739;28;20252;-77
2021/12/23 12:08:06;;;;;;;25.27;21.10;;;;;;;-0.72;51.81;93320.31;5067682;28;20872;-77
2021/12/23 12:10:33;;;;;;;29.57;21.87;;;;;;;-0.90;52.20;93311.59;5068788;28;20239;-77
2021/12/23 12:13:05;;;;;;;27.80;19.53;;;;;;;-1.02;51.94;93318.22;5068411;28;20208;-77
2021/12/23 12:15:39;;;;;;;22.77;19.40;;;;;;;-0.78;51.23;93315.19;5068988;28;20209;-77
2021/12/23 12:18:10;;;;;;;26.80;19.13;;;;;;;-0.89;50.50;93316.53;5069137;28;20229;-76
2021/12/23 12:20:44;;;;;;;24.93;18.80;;;;;;;-0.98;51.60;93292.03;5068534;28;20225;-77
2021/12/23 12:23:14;;;;;;;27.00;19.90;;;;;;;-0.82;52.33;93309.63;5069971;28;20192;-79
2021/12/23 12:25:44;;;;;;;23.97;19.83;;;;;;;-0.80;52.82;93314.56;5067653;28;21054;-77
2021/12/23 12:28:14;;;;;;;23.20;19.67;;;;;;;-0.68;51.41;93302.75;5067400;28;20198;-77
2021/12/23 12:31:12;;;;;;;21.03;18.43;;;;;;;-0.60;51.42;93307.72;5067830;28;20245;-77
2021/12/23 12:34:00;;;;;;;21.03;17.87;;;;;;;-0.63;51.28;93267.88;5067761;28;20723;-78
2021/12/23 12:36:26;;;;;;;23.00;19.23;;;;;;;-0.51;51.75;93275.78;5068168;28;20243;-77